Time;durP1;ratioP1;P1;durP2;ratioP2;P2;SDS_P1;SDS_P2;PMS_P1;PMS_P2;Temp;Humidity;BMP_temperature;BMP_pressure;BME280_temperature;BME280_humidity;BME280_pressure;Samples;Min_cycle;Max_cycle;Signal;HPM_P1;HPM_P2
2023/12/01 00:02:03;;;;;;;7.60;2.78;;;16.60;80.10;;;;;;5035882;28;20120;-57
2023/12/01 00:04:29;;;;;;;5.60;2.40;;;16.60;80.40;;;;;;5036333;28;20040;-56
2023/12/01 00:06:55;;;;;;;7.43;1.90;;;16.70;80.40;;;;;;5035880;28;20037;-56
2023/12/01 00:09:21;;;;;;;4.75;1.65;;;16.80;79.80;;;;;;5036230;28;20037;-57
2023/12/01 00:11:47;;;;;;;7.65;1.95;;;16.90;79.30;;;;;;5036029;28;20028;-57
2023/12/01 00:14:13;;;;;;;9.30;2.13;;;17.00;79.80;;;;;;5035844;28;20033;-57
2023/12/01 00:16:39;;;;;;;4.60;1.70;;;17.30;79.50;;;;;;5035774;28;20045;-57
2023/12/01 00:19:04;;;;;;;15.77;3.92;;;17.30;78.70;;;;;;5036037;28;20029;-57
2023/12/01 00:21:30;;;;;;;6.93;1.95;;;17.20;79.30;;;;;;5035621;28;20026;-57
2023/12/01 00:23:56;;;;;;;9.60;2.10;;;17.40;78.70;;;;;;5035939;28;20029;-57
2023/12/01 00:26:22;;;;;;;8.85;2.70;;;17.40;78.30;;;;;;5035767;28;20037;-57
2023/12/01 00:28:55;;;;;;;6.32;2.58;;;17.50;78.10;;;;;;5035418;28;20045;-57
2023/12/01 00:31:21;;;;;;;5.03;1.70;;;17.60;78.50;;;;;;5035698;28;20045;-57
2023/12/01 00:33:47;;;;;;;8.23;2.20;;;17.60;78.00;;;;;;5035938;28;20047;-57
2023/12/01 00:36:13;;;;;;;8.38;2.45;;;17.60;77.90;;;;;;5033279;28;20156;-57
2023/12/01 00:38:39;;;;;;;6.85;1.83;;;17.60;77.70;;;;;;5034601;28;20036;-57
2023/12/01 00:41:05;;;;;;;8.43;2.05;;;17.70;77.50;;;;;;5035742;28;20030;-57
2023/12/01 00:43:31;;;;;;;6.05;2.08;;;17.70;77.70;;;;;;5034141;28;20033;-57
2023/12/01 00:45:57;;;;;;;8.00;2.15;;;17.70;77.20;;;;;;5035291;28;20079;-57
2023/12/01 00:48:24;;;;;;;5.90;2.00;;;17.70;77.20;;;;;;5035734;28;20014;-57
2023/12/01 00:50:52;;;;;;;6.40;1.77;;;17.70;77.50;;;;;;5033999;28;20069;-57
2023/12/01 00:53:18;;;;;;;7.25;1.95;;;17.70;77.40;;;;;;5035557;28;20121;-57
2023/12/01 00:55:44;;;;;;;8.48;2.53;;;17.60;77.90;;;;;;5035303;28;20053;-57
2023/12/01 00:58:10;;;;;;;6.72;2.17;;;17.50;78.40;;;;;;5035099;28;20120;-56
2023/12/01 01:00:36;;;;;;;13.63;5.15;;;17.40;78.20;;;;;;5033954;28;20550;-57
2023/12/01 01:03:01;;;;;;;8.25;2.35;;;17.50;78.50;;;;;;5035318;28;20541;-57
2023/12/01 01:05:27;;;;;;;6.07;2.08;;;17.50;78.50;;;;;;5033771;28;20033;-57
2023/12/01 01:07:53;;;;;;;7.78;2.10;;;17.50;78.50;;;;;;5035371;28;20056;-56
2023/12/01 01:10:19;;;;;;;13.20;3.42;;;17.60;77.70;;;;;;5035404;28;20044;-57
2023/12/01 01:12:45;;;;;;;9.60;2.40;;;17.60;77.50;;;;;;5033695;28;20045;-57
2023/12/01 01:15:11;;;;;;;5.43;2.13;;;17.70;77.70;;;;;;5035321;28;20026;-57
2023/12/01 01:17:37;;;;;;;9.75;2.50;;;17.70;77.40;;;;;;5050604;28;20029;-57
2023/12/01 01:20:04;;;;;;;5.45;1.60;;;17.60;78.20;;;;;;5033678;28;20041;-57
2023/12/01 01:22:29;;;;;;;12.70;3.42;;;17.50;78.20;;;;;;5035258;28;20037;-57
2023/12/01 01:24:55;;;;;;;7.15;2.17;;;17.60;78.50;;;;;;5035091;28;20095;-57
2023/12/01 01:27:21;;;;;;;3.28;1.40;;;17.70;78.00;;;;;;5034869;28;20061;-57
2023/12/01 01:29:47;;;;;;;5.30;1.50;;;17.80;76.40;;;;;;5034028;28;20038;-56
2023/12/01 01:32:14;;;;;;;6.10;2.65;;;17.90;76.70;;;;;;5035162;28;20032;-57
2023/12/01 01:34:40;;;;;;;17.48;4.82;;;17.80;77.30;;;;;;5033885;28;20041;-57
2023/12/01 01:37:09;;;;;;;6.85;2.25;;;17.70;77.70;;;;;;5034818;28;20026;-57
2023/12/01 01:39:35;;;;;;;5.50;1.60;;;17.70;77.10;;;;;;5033747;28;20029;-56
2023/12/01 01:42:01;;;;;;;9.40;2.00;;;17.70;76.70;;;;;;5033690;28;20080;-57
2023/12/01 01:44:27;;;;;;;7.43;2.10;;;17.70;77.30;;;;;;5034765;28;20091;-57
2023/12/01 01:46:54;;;;;;;5.57;1.55;;;17.60;77.60;;;;;;5034513;28;20022;-57
2023/12/01 01:49:25;;;;;;;5.93;1.60;;;17.70;76.50;;;;;;5038938;28;20090;-57
2023/12/01 01:51:56;;;;;;;5.38;1.58;;;17.70;76.50;;;;;;5037313;28;20036;-57
2023/12/01 01:54:25;;;;;;;4.03;1.40;;;17.70;76.80;;;;;;5038820;28;20021;-57
2023/12/01 01:56:57;;;;;;;9.75;2.65;;;17.60;76.80;;;;;;5038615;28;20383;-57
2023/12/01 01:59:23;;;;;;;7.43;1.67;;;17.60;76.90;;;;;;5038772;28;20065;-57
2023/12/01 02:01:50;;;;;;;12.02;2.55;;;17.70;76.90;;;;;;5037448;28;20026;-57
2023/12/01 02:04:17;;;;;;;7.47;2.05;;;17.70;77.30;;;;;;5053881;28;20038;-56
2023/12/01 02:06:46;;;;;;;3.58;1.55;;;17.70;75.90;;;;;;5038121;28;20041;-57
2023/12/01 02:09:13;;;;;;;5.75;1.50;;;17.60;75.90;;;;;;5038437;28;20079;-57
2023/12/01 02:11:43;;;;;;;9.80;2.53;;;17.70;75.80;;;;;;5037167;28;20053;-57
2023/12/01 02:14:09;;;;;;;5.90;1.30;;;17.80;75.50;;;;;;5053684;28;20022;-57
2023/12/01 02:16:35;;;;;;;7.35;2.47;;;17.90;75.00;;;;;;5034916;28;20033;-57
2023/12/01 02:19:01;;;;;;;7.00;2.30;;;17.80;75.40;;;;;;5037582;28;20083;-57
2023/12/01 02:21:27;;;;;;;9.10;2.53;;;17.70;75.90;;;;;;5036781;28;20037;-57
2023/12/01 02:23:55;;;;;;;7.22;2.08;;;17.70;76.30;;;;;;5036940;28;20403;-57
2023/12/01 02:26:22;;;;;;;7.85;1.70;;;17.60;76.30;;;;;;5038023;28;20044;-57
2023/12/01 02:28:49;;;;;;;9.27;2.35;;;17.60;76.30;;;;;;5037026;28;20343;-57
2023/12/01 02:31:15;;;;;;;9.60;2.13;;;17.60;76.60;;;;;;5036759;28;20018;-57
2023/12/01 02:33:41;;;;;;;9.30;2.28;;;17.60;76.50;;;;;;5036816;28;20493;-57
2023/12/01 02:36:08;;;;;;;7.97;1.65;;;17.60;76.50;;;;;;5037541;28;20079;-57
2023/12/01 02:38:35;;;;;;;7.13;1.88;;;17.60;76.50;;;;;;5036131;28;20038;-56
2023/12/01 02:41:02;;;;;;;5.07;2.00;;;17.60;76.80;;;;;;5037866;28;20376;-57
2023/12/01 02:43:29;;;;;;;5.78;1.70;;;17.50;77.00;;;;;;5037670;28;20112;-57
2023/12/01 02:45:55;;;;;;;4.57;1.70;;;17.60;76.30;;;;;;5037699;28;20026;-57
2023/12/01 02:48:22;;;;;;;11.50;2.60;;;17.60;77.00;;;;;;5037709;28;20430;-57
2023/12/01 02:50:48;;;;;;;7.35;2.13;;;17.50;76.30;;;;;;5036209;28;20041;-57
2023/12/01 02:53:15;;;;;;;5.55;1.52;;;17.50;76.40;;;;;;5036524;28;20025;-57
2023/12/01 02:55:42;;;;;;;5.03;1.40;;;17.60;76.00;;;;;;5037508;28;20025;-57
2023/12/01 02:58:08;;;;;;;6.05;1.95;;;17.80;75.50;;;;;;5036426;28;20026;-57
2023/12/01 03:00:35;;;;;;;5.40;1.77;;;17.70;75.50;;;;;;5052875;28;20094;-57
2023/12/01 03:03:01;;;;;;;5.32;1.48;;;17.60;75.90;;;;;;5037495;28;20036;-57
2023/12/01 03:05:27;;;;;;;6.53;1.50;;;17.60;75.50;;;;;;5037169;28;20030;-57
2023/12/01 03:07:53;;;;;;;8.50;1.70;;;17.60;75.30;;;;;;5037189;28;20050;-57
2023/12/01 03:10:19;;;;;;;3.72;1.48;;;17.60;75.80;;;;;;5052699;28;20033;-57
2023/12/01 03:12:45;;;;;;;8.50;1.83;;;17.60;75.60;;;;;;5036952;28;20112;-57
2023/12/01 03:15:19;;;;;;;7.65;1.98;;;17.60;75.80;;;;;;5037307;28;20061;-57
2023/12/01 03:17:47;;;;;;;5.72;1.63;;;17.40;76.40;;;;;;5037299;28;20045;-56
2023/12/01 03:20:14;;;;;;;4.53;1.45;;;17.20;77.00;;;;;;5036758;28;20077;-57
2023/12/01 03:22:43;;;;;;;7.80;1.80;;;17.40;76.20;;;;;;5037248;28;20026;-57
2023/12/01 03:25:12;;;;;;;6.15;1.48;;;17.60;75.80;;;;;;5037044;28;20029;-57
2023/12/01 03:27:40;;;;;;;2.83;1.30;;;17.70;74.90;;;;;;5035495;28;20083;-57
2023/12/01 03:30:13;;;;;;;7.90;1.30;;;17.80;74.40;;;;;;5036964;28;20138;-57
2023/12/01 03:32:51;;;;;;;5.93;1.67;;;17.90;73.80;;;;;;5052367;28;20104;-57
2023/12/01 03:35:27;;;;;;;5.70;1.77;;;18.00;73.80;;;;;;5035398;28;20395;-57
2023/12/01 03:37:57;;;;;;;5.82;1.55;;;17.90;73.90;;;;;;5036675;28;20033;-57
2023/12/01 03:40:25;;;;;;;4.65;1.55;;;17.90;73.60;;;;;;5037098;28;20018;-57
2023/12/01 03:42:51;;;;;;;8.25;2.00;;;17.90;73.60;;;;;;5036525;28;20049;-57
2023/12/01 03:45:18;;;;;;;5.57;1.70;;;17.80;73.90;;;;;;5035380;28;20021;-57
2023/12/01 03:47:46;;;;;;;6.05;1.50;;;17.80;73.90;;;;;;5036653;28;20372;-57
2023/12/01 03:50:12;;;;;;;7.78;2.00;;;17.70;74.60;;;;;;5034791;28;20407;-57
2023/12/01 03:52:42;;;;;;;9.52;2.03;;;17.70;74.40;;;;;;5036605;28;20056;-57
2023/12/01 03:55:09;;;;;;;7.35;1.77;;;17.60;74.30;;;;;;5036491;28;20372;-57
2023/12/01 03:57:36;;;;;;;7.10;2.13;;;17.90;74.10;;;;;;5034980;28;20025;-57
2023/12/01 04:00:07;;;;;;;8.10;1.98;;;17.70;74.20;;;;;;5035022;28;20049;-57
2023/12/01 04:02:40;;;;;;;13.95;2.78;;;17.70;75.30;;;;;;5036453;28;20503;-57
2023/12/01 04:05:08;;;;;;;10.38;2.22;;;17.60;75.10;;;;;;5036058;28;20605;-57
2023/12/01 04:07:35;;;;;;;9.43;2.50;;;17.60;74.90;;;;;;5036297;28;20048;-56
2023/12/01 04:10:03;;;;;;;8.30;2.20;;;17.80;74.90;;;;;;5035940;28;20032;-56
2023/12/01 04:12:30;;;;;;;7.63;2.17;;;17.70;75.20;;;;;;5036265;28;20105;-56
2023/12/01 04:14:57;;;;;;;6.68;2.13;;;17.60;75.90;;;;;;5036454;28;20041;-57
2023/12/01 04:17:23;;;;;;;12.98;3.60;;;17.60;76.70;;;;;;5034583;28;20041;-57
2023/12/01 04:19:49;;;;;;;8.30;2.58;;;17.50;77.00;;;;;;5035592;28;20525;-57
2023/12/01 04:22:16;;;;;;;15.82;3.22;;;17.50;76.30;;;;;;5034867;28;20045;-57
2023/12/01 04:24:42;;;;;;;9.32;2.95;;;17.50;76.40;;;;;;5035779;28;20036;-57
2023/12/01 04:27:08;;;;;;;8.70;2.28;;;17.50;76.20;;;;;;5035643;28;20037;-57
2023/12/01 04:29:34;;;;;;;8.43;2.72;;;17.50;76.80;;;;;;5035583;28;20049;-56
2023/12/01 04:32:00;;;;;;;10.77;2.55;;;17.40;76.90;;;;;;5035811;28;20029;-57
2023/12/01 04:34:26;;;;;;;10.55;2.15;;;17.50;77.00;;;;;;5035545;28;20028;-57
2023/12/01 04:36:54;;;;;;;11.30;3.08;;;17.60;76.10;;;;;;5035651;28;20364;-57
2023/12/01 04:39:20;;;;;;;12.80;2.40;;;17.50;76.90;;;;;;5035729;28;20167;-57
2023/12/01 04:41:50;;;;;;;9.50;2.35;;;17.50;76.70;;;;;;5035705;28;20080;-57
2023/12/01 04:44:17;;;;;;;8.68;2.75;;;17.60;76.50;;;;;;5035888;28;20041;-57
2023/12/01 04:46:43;;;;;;;9.65;2.67;;;17.60;76.30;;;;;;5035544;28;20039;-57
2023/12/01 04:49:08;;;;;;;11.32;2.55;;;17.70;76.60;;;;;;5034999;28;20108;-57
2023/12/01 04:51:38;;;;;;;10.23;2.20;;;17.70;76.70;;;;;;5035728;28;20037;-57
2023/12/01 04:54:07;;;;;;;7.70;2.30;;;17.70;77.00;;;;;;5035535;28;20473;-57
2023/12/01 04:56:33;;;;;;;9.18;2.78;;;17.70;76.10;;;;;;5034913;28;20037;-57
2023/12/01 04:59:01;;;;;;;7.28;2.47;;;17.70;76.40;;;;;;5035352;28;20406;-57
2023/12/01 05:01:27;;;;;;;10.95;2.78;;;17.80;76.30;;;;;;5035579;28;20079;-57
2023/12/01 05:03:53;;;;;;;7.57;2.55;;;17.90;75.30;;;;;;5035166;28;20030;-57
2023/12/01 05:06:19;;;;;;;7.90;1.85;;;17.90;75.50;;;;;;5035406;28;20383;-57
2023/12/01 05:08:45;;;;;;;6.82;2.08;;;17.90;75.30;;;;;;5035320;28;20037;-56
2023/12/01 05:11:11;;;;;;;12.30;1.98;;;17.90;75.30;;;;;;5035181;28;20021;-57
2023/12/01 05:13:37;;;;;;;11.95;2.67;;;17.90;75.10;;;;;;5035265;28;20493;-57
2023/12/01 05:16:04;;;;;;;10.00;2.88;;;17.90;75.20;;;;;;5035322;28;20025;-57
2023/12/01 05:18:30;;;;;;;7.05;2.03;;;17.90;75.20;;;;;;5035183;28;20034;-56
2023/12/01 05:20:56;;;;;;;8.50;2.10;;;18.00;74.70;;;;;;5035419;28;20038;-57
2023/12/01 05:23:22;;;;;;;11.57;3.22;;;18.00;74.60;;;;;;5038769;28;20029;-57
2023/12/01 05:25:50;;;;;;;7.93;2.90;;;18.00;74.40;;;;;;5038920;28;20076;-57
2023/12/01 05:28:16;;;;;;;18.42;3.22;;;17.90;75.00;;;;;;5039107;28;20030;-57
2023/12/01 05:30:47;;;;;;;13.80;3.28;;;17.80;75.10;;;;;;5039163;28;20044;-57
2023/12/01 05:33:14;;;;;;;12.38;3.15;;;17.90;74.90;;;;;;5038990;28;20037;-57
2023/12/01 05:35:42;;;;;;;14.70;2.83;;;17.90;74.80;;;;;;5039179;28;20084;-57
2023/12/01 05:38:08;;;;;;;9.30;3.10;;;17.80;75.30;;;;;;5038934;28;20028;-57
2023/12/01 05:40:37;;;;;;;11.95;2.90;;;17.80;74.60;;;;;;5038857;28;20025;-57
2023/12/01 05:43:04;;;;;;;14.60;3.03;;;17.90;74.20;;;;;;5039004;28;20032;-57
2023/12/01 05:45:35;;;;;;;9.30;2.60;;;17.90;74.90;;;;;;5038881;28;20057;-57
2023/12/01 05:48:02;;;;;;;;;;;17.90;74.40;;;;;;5039149;28;20026;-57
2023/12/01 05:50:32;;;;;;;17.58;4.00;;;17.80;75.10;;;;;;5038684;28;19913;-57
2023/12/01 05:53:00;;;;;;;14.35;2.60;;;17.80;75.10;;;;;;5038971;28;20026;-57
2023/12/01 05:55:28;;;;;;;16.15;3.78;;;17.80;74.60;;;;;;5038692;28;20036;-57
2023/12/01 05:57:58;;;;;;;16.90;3.50;;;17.80;74.90;;;;;;5038601;28;20445;-57
2023/12/01 06:00:29;;;;;;;12.57;3.42;;;17.70;75.30;;;;;;5037410;28;20474;-57
2023/12/01 06:02:59;;;;;;;17.40;4.45;;;17.70;75.30;;;;;;5038610;28;20033;-56
2023/12/01 06:05:26;;;;;;;14.48;4.03;;;17.60;75.70;;;;;;5038678;28;20030;-57
2023/12/01 06:07:59;;;;;;;17.13;3.25;;;17.50;76.10;;;;;;5038410;28;20041;-57
2023/12/01 06:10:27;;;;;;;14.93;3.95;;;17.60;75.80;;;;;;5038106;28;20057;-57
2023/12/01 06:12:53;;;;;;;15.23;3.17;;;17.70;74.80;;;;;;5038499;28;20022;-57
2023/12/01 06:15:20;;;;;;;15.00;3.38;;;17.70;74.60;;;;;;5037563;28;20041;-57
2023/12/01 06:17:47;;;;;;;14.00;4.22;;;17.70;74.10;;;;;;5037903;28;20037;-57
2023/12/01 06:20:18;;;;;;;17.67;4.03;;;17.90;73.40;;;;;;5038465;28;20160;-57
2023/12/01 06:22:47;;;;;;;19.33;3.95;;;17.90;73.80;;;;;;5038733;28;20029;-57
2023/12/01 06:25:17;;;;;;;13.32;3.65;;;17.90;73.60;;;;;;5036031;28;20038;-56
2023/12/01 06:27:44;;;;;;;16.58;3.50;;;17.80;73.10;;;;;;5037776;28;20510;-56
2023/12/01 06:30:12;;;;;;;15.35;4.07;;;17.90;73.40;;;;;;5035290;28;20117;-57
2023/12/01 06:32:42;;;;;;;18.70;3.85;;;17.90;73.30;;;;;;5037596;28;20030;-57
2023/12/01 06:35:11;;;;;;;16.52;5.03;;;17.80;73.90;;;;;;5034842;28;20032;-57
2023/12/01 06:37:40;;;;;;;19.35;4.57;;;17.80;73.90;;;;;;5037078;28;20041;-57
2023/12/01 06:40:15;;;;;;;15.13;3.60;;;17.80;73.90;;;;;;5038127;28;20036;-57
2023/12/01 06:42:43;;;;;;;22.80;5.43;;;18.00;73.10;;;;;;5038563;28;20072;-57
2023/12/01 06:45:13;;;;;;;12.98;3.05;;;18.00;73.80;;;;;;5038136;28;20450;-57
2023/12/01 06:47:41;;;;;;;21.35;4.88;;;18.10;73.40;;;;;;5037332;28;20053;-56
2023/12/01 06:50:11;;;;;;;16.08;3.83;;;18.10;73.30;;;;;;5037664;28;20387;-57
2023/12/01 06:52:38;;;;;;;12.07;3.70;;;18.20;71.90;;;;;;5036059;28;20124;-56
2023/12/01 06:55:07;;;;;;;23.50;4.50;;;18.20;72.10;;;;;;5037313;28;20109;-57
2023/12/01 06:57:40;;;;;;;19.65;3.47;;;18.30;71.90;;;;;;5038090;28;20022;-57
2023/12/01 07:00:33;;;;;;;18.27;4.97;;;18.30;71.50;;;;;;5037397;28;20565;-57
2023/12/01 07:03:00;;;;;;;16.20;5.43;;;18.20;71.40;;;;;;5036903;28;20025;-57
2023/12/01 07:05:28;;;;;;;19.45;4.82;;;18.20;72.20;;;;;;5036486;28;20025;-57
2023/12/01 07:07:58;;;;;;;12.88;3.97;;;18.10;72.00;;;;;;5032946;28;20694;-57
2023/12/01 07:10:25;;;;;;;13.48;3.20;;;18.20;71.70;;;;;;5035050;28;20112;-57
2023/12/01 07:12:52;;;;;;;14.20;3.50;;;18.20;71.90;;;;;;5035647;28;20033;-57
2023/12/01 07:15:22;;;;;;;26.25;6.38;;;18.20;72.20;;;;;;5035934;28;20108;-57
2023/12/01 07:17:56;;;;;;;13.77;3.92;;;18.30;71.00;;;;;;5036036;28;20025;-57
2023/12/01 07:20:23;;;;;;;13.40;3.55;;;18.60;71.10;;;;;;5036445;28;20040;-57
2023/12/01 07:22:52;;;;;;;20.83;3.75;;;18.70;69.50;;;;;;5036251;28;20518;-57
2023/12/01 07:25:22;;;;;;;15.88;4.35;;;18.70;69.00;;;;;;5036074;28;20037;-57
2023/12/01 07:27:54;;;;;;;13.57;3.92;;;18.80;69.80;;;;;;5033229;28;20116;-57
2023/12/01 07:30:20;;;;;;;16.17;4.45;;;18.90;68.80;;;;;;5036175;28;20040;-57
2023/12/01 07:32:47;;;;;;;7.45;2.40;;;18.90;68.80;;;;;;5033604;28;20027;-57
2023/12/01 07:35:14;;;;;;;8.18;2.50;;;19.00;67.10;;;;;;5035932;28;20026;-57
2023/12/01 07:37:44;;;;;;;13.27;3.78;;;19.20;66.20;;;;;;5035379;28;20048;-57
2023/12/01 07:40:11;;;;;;;17.58;4.22;;;19.10;67.40;;;;;;5036384;28;20089;-57
2023/12/01 07:42:39;;;;;;;15.68;3.60;;;19.10;67.00;;;;;;5037243;28;20029;-57
2023/12/01 07:45:05;;;;;;;14.13;4.07;;;19.10;66.70;;;;;;5035769;28;20033;-57
2023/12/01 07:47:31;;;;;;;12.55;3.63;;;19.10;67.00;;;;;;5035965;28;20045;-57
2023/12/01 07:49:59;;;;;;;11.40;3.00;;;19.10;67.20;;;;;;5036440;28;20061;-57
2023/12/01 07:52:25;;;;;;;56.25;20.67;;;19.10;66.90;;;;;;5035076;28;20036;-57
2023/12/01 07:54:51;;;;;;;35.30;10.13;;;19.10;67.70;;;;;;5036721;28;20056;-57
2023/12/01 07:57:18;;;;;;;59.28;18.15;;;19.10;67.00;;;;;;5036413;28;20077;-57
2023/12/01 07:59:44;;;;;;;100.18;31.55;;;19.10;66.60;;;;;;5034523;28;20026;-57
2023/12/01 08:02:10;;;;;;;89.20;30.10;;;19.20;65.90;;;;;;5034051;28;20079;-57
2023/12/01 08:04:36;;;;;;;15.48;5.38;;;19.30;65.00;;;;;;5017202;28;20038;-57
2023/12/01 08:07:04;;;;;;;27.73;6.10;;;19.30;64.60;;;;;;5016475;28;20050;-57
2023/12/01 08:09:31;;;;;;;13.88;3.38;;;19.30;63.80;;;;;;5014998;28;20034;-57
2023/12/01 08:12:03;;;;;;;10.63;2.83;;;19.30;64.50;;;;;;5020294;28;20460;-57
2023/12/01 08:14:29;;;;;;;13.02;2.80;;;19.30;63.50;;;;;;5035864;28;20390;-57
2023/12/01 08:16:55;;;;;;;10.77;2.10;;;19.30;64.70;;;;;;5034395;28;20065;-57
2023/12/01 08:19:22;;;;;;;14.57;2.53;;;19.40;61.20;;;;;;5036298;28;20549;-57
2023/12/01 08:21:47;;;;;;;16.13;3.97;;;19.50;62.20;;;;;;5035913;28;20025;-57
2023/12/01 08:24:13;;;;;;;21.20;3.97;;;19.60;61.70;;;;;;5036079;28;20112;-57
2023/12/01 08:26:39;;;;;;;23.38;5.13;;;19.80;62.30;;;;;;5035776;28;20041;-57
2023/12/01 08:29:05;;;;;;;11.02;3.60;;;20.10;60.40;;;;;;5034829;28;20484;-57
2023/12/01 08:31:31;;;;;;;23.40;4.93;;;20.20;60.20;;;;;;5035681;28;20417;-57
2023/12/01 08:33:58;;;;;;;22.85;5.00;;;20.40;60.60;;;;;;5035372;28;20060;-57
2023/12/01 08:36:24;;;;;;;21.77;2.95;;;20.40;58.80;;;;;;5035128;28;20031;-57
2023/12/01 08:38:50;;;;;;;14.05;3.30;;;20.20;58.40;;;;;;5034774;28;20037;-57
2023/12/01 08:41:17;;;;;;;9.73;2.92;;;20.30;58.10;;;;;;5035891;28;20419;-57
2023/12/01 08:43:43;;;;;;;18.65;4.53;;;20.50;57.00;;;;;;5035942;28;20037;-57
2023/12/01 08:46:08;;;;;;;13.48;2.90;;;20.50;56.80;;;;;;5035016;28;20464;-57
2023/12/01 08:48:34;;;;;;;10.52;2.85;;;20.30;56.00;;;;;;5035272;28;20037;-57
2023/12/01 08:51:00;;;;;;;14.88;3.65;;;20.20;56.20;;;;;;5035300;28;20041;-57
2023/12/01 08:53:28;;;;;;;21.55;10.23;;;20.10;56.00;;;;;;5035224;28;20028;-57
2023/12/01 08:55:56;;;;;;;12.35;2.58;;;20.00;55.90;;;;;;5034825;28;20487;-57
2023/12/01 08:58:22;;;;;;;14.85;3.67;;;20.00;56.40;;;;;;5034898;28;20057;-57
2023/12/01 09:00:48;;;;;;;14.98;3.45;;;19.90;56.80;;;;;;5035072;28;20044;-57
2023/12/01 09:03:14;;;;;;;19.58;3.92;;;19.80;56.90;;;;;;5035621;28;20072;-57
2023/12/01 09:05:40;;;;;;;7.60;1.90;;;19.80;56.20;;;;;;5034737;28;20030;-57
2023/12/01 09:08:07;;;;;;;10.00;3.03;;;19.80;55.50;;;;;;5034886;28;20730;-57
2023/12/01 09:10:33;;;;;;;9.30;2.10;;;19.70;56.30;;;;;;5029278;28;20478;-58
2023/12/01 09:12:59;;;;;;;7.47;2.40;;;19.70;55.50;;;;;;5033332;28;20025;-57
2023/12/01 09:15:25;;;;;;;7.13;2.47;;;19.70;54.90;;;;;;5033075;28;20029;-57
2023/12/01 09:17:54;;;;;;;15.88;2.67;;;19.70;54.90;;;;;;5031739;28;20060;-58
2023/12/01 09:20:20;;;;;;;7.30;2.72;;;19.70;55.10;;;;;;5029402;28;20044;-57
2023/12/01 09:22:46;;;;;;;8.57;2.00;;;19.70;54.50;;;;;;5032756;28;20463;-57
2023/12/01 09:25:13;;;;;;;16.80;3.65;;;19.70;55.00;;;;;;5033691;28;20029;-57
2023/12/01 09:27:42;;;;;;;14.40;2.75;;;19.70;55.00;;;;;;5033538;28;20176;-57
2023/12/01 09:30:16;;;;;;;8.25;2.33;;;19.70;54.60;;;;;;5034446;28;20046;-57
2023/12/01 09:32:55;;;;;;;4.45;1.58;;;19.70;54.40;;;;;;5031125;28;20086;-57
2023/12/01 09:35:23;;;;;;;8.98;2.08;;;19.70;54.10;;;;;;5033171;28;20014;-57
2023/12/01 09:37:49;;;;;;;12.40;2.83;;;19.70;54.70;;;;;;5031672;28;20022;-57
2023/12/01 09:40:15;;;;;;;14.55;4.57;;;19.70;55.10;;;;;;5032328;28;20489;-57
2023/12/01 09:42:42;;;;;;;7.90;2.22;;;19.80;54.80;;;;;;5029489;28;20067;-57
2023/12/01 09:45:12;;;;;;;6.65;1.40;;;19.80;53.80;;;;;;5032745;28;20083;-57
2023/12/01 09:47:47;;;;;;;11.38;2.55;;;19.80;52.90;;;;;;5033900;28;20104;-57
2023/12/01 09:50:14;;;;;;;18.90;3.95;;;20.00;51.20;;;;;;5032852;28;20045;-57
2023/12/01 09:52:42;;;;;;;19.08;3.03;;;20.10;52.40;;;;;;5034470;28;20044;-57
2023/12/01 09:55:08;;;;;;;11.13;2.00;;;20.10;51.60;;;;;;5034707;28;20037;-57
2023/12/01 09:57:34;;;;;;;9.80;2.38;;;20.30;50.80;;;;;;5034464;28;20036;-57
2023/12/01 10:00:03;;;;;;;6.38;2.33;;;20.40;51.80;;;;;;5034121;28;20065;-58
2023/12/01 10:02:41;;;;;;;13.35;2.53;;;20.40;50.80;;;;;;5034098;28;20021;-57
2023/12/01 10:05:08;;;;;;;18.58;4.00;;;20.50;50.30;;;;;;5033488;28;20052;-57
2023/12/01 10:07:37;;;;;;;8.52;2.13;;;20.60;50.40;;;;;;5034029;28;20078;-57
2023/12/01 10:10:26;;;;;;;9.93;2.42;;;20.60;49.50;;;;;;5037529;28;20025;-57
2023/12/01 10:12:57;;;;;;;23.77;4.50;;;20.60;48.30;;;;;;5037939;28;20052;-57
2023/12/01 10:15:24;;;;;;;12.68;3.10;;;20.60;49.20;;;;;;5031473;28;20026;-57
2023/12/01 10:17:54;;;;;;;10.68;3.00;;;20.50;47.30;;;;;;5021516;28;20026;-57
2023/12/01 10:20:21;;;;;;;11.35;3.00;;;20.60;47.00;;;;;;5033847;28;20040;-57
2023/12/01 10:22:49;;;;;;;23.73;3.55;;;20.50;47.90;;;;;;5038017;28;20071;-57
2023/12/01 10:25:15;;;;;;;19.65;7.25;;;20.50;47.90;;;;;;5037516;28;20144;-57
2023/12/01 10:27:42;;;;;;;27.67;4.55;;;20.40;48.40;;;;;;5037057;28;20030;-57
2023/12/01 10:30:13;;;;;;;10.50;2.50;;;20.40;48.30;;;;;;5033471;28;20103;-57
2023/12/01 10:32:41;;;;;;;16.30;3.25;;;20.40;46.60;;;;;;5028405;28;20030;-57
2023/12/01 10:35:08;;;;;;;14.48;3.03;;;20.40;46.70;;;;;;5036337;28;20029;-57
2023/12/01 10:37:37;;;;;;;22.38;5.10;;;20.30;46.90;;;;;;5035972;28;20064;-57
2023/12/01 10:40:08;;;;;;;16.85;3.53;;;20.30;47.50;;;;;;5037099;28;20045;-57
2023/12/01 10:42:36;;;;;;;11.98;3.42;;;20.30;46.10;;;;;;5037543;28;20480;-57
2023/12/01 10:45:04;;;;;;;16.85;3.42;;;20.30;46.30;;;;;;5037729;28;20025;-57
2023/12/01 10:47:32;;;;;;;14.43;2.60;;;20.20;46.80;;;;;;5031473;28;20501;-57
2023/12/01 10:50:01;;;;;;;18.83;4.60;;;20.30;45.90;;;;;;5037385;28;20080;-57
2023/12/01 10:52:32;;;;;;;12.77;2.92;;;20.30;46.10;;;;;;5036441;28;20112;-57
2023/12/01 10:54:58;;;;;;;10.82;2.50;;;20.30;46.10;;;;;;5037323;28;20511;-57
2023/12/01 10:57:40;;;;;;;14.07;3.20;;;20.30;45.50;;;;;;5030975;28;20025;-57
2023/12/01 11:00:29;;;;;;;12.80;3.05;;;20.30;46.00;;;;;;5030399;28;20053;-57
2023/12/01 11:02:54;;;;;;;14.80;2.67;;;20.40;45.60;;;;;;5023743;28;20037;-57
2023/12/01 11:05:21;;;;;;;13.10;2.90;;;20.40;45.30;;;;;;5037457;28;20030;-57
2023/12/01 11:08:20;;;;;;;20.10;3.92;;;20.40;44.30;;;;;;5037178;28;20540;-57
2023/12/01 11:11:15;;;;;;;9.95;2.80;;;20.40;45.30;;;;;;5037716;28;20048;-57
2023/12/01 11:13:59;;;;;;;10.75;2.63;;;20.50;44.10;;;;;;5035682;28;20032;-57
2023/12/01 11:16:31;;;;;;;19.90;4.10;;;20.40;45.00;;;;;;5037814;28;20030;-57
2023/12/01 11:18:58;;;;;;;18.25;3.25;;;20.50;45.30;;;;;;5031020;28;20530;-57
2023/12/01 11:21:24;;;;;;;8.15;2.47;;;20.40;44.60;;;;;;5033701;28;20099;-57
2023/12/01 11:23:51;;;;;;;16.33;2.40;;;20.40;44.50;;;;;;5036002;28;20033;-57
2023/12/01 11:26:17;;;;;;;12.38;2.58;;;20.40;44.20;;;;;;5035885;28;20036;-57
2023/12/01 11:28:53;;;;;;;18.45;3.00;;;20.50;43.80;;;;;;5036990;28;20468;-57
2023/12/01 11:31:37;;;;;;;11.95;2.75;;;20.50;44.50;;;;;;5017963;28;20111;-57
2023/12/01 11:34:04;;;;;;;10.07;3.30;;;20.50;44.50;;;;;;5037129;28;20022;-57
2023/12/01 11:37:00;;;;;;;16.63;3.72;;;20.40;44.70;;;;;;5036862;28;20108;-57
2023/12/01 11:39:31;;;;;;;13.35;2.85;;;20.30;45.20;;;;;;5052172;28;20040;-57
2023/12/01 11:42:02;;;;;;;14.15;2.22;;;20.30;44.10;;;;;;5053304;28;20040;-57
2023/12/01 11:44:37;;;;;;;7.68;2.88;;;20.30;43.50;;;;;;5039225;28;20045;-57
2023/12/01 11:47:06;;;;;;;13.05;2.92;;;20.30;44.00;;;;;;5038327;28;20097;-57
2023/12/01 11:49:36;;;;;;;19.67;4.28;;;20.30;43.50;;;;;;5050103;28;20041;-57
2023/12/01 11:52:04;;;;;;;18.70;5.18;;;20.40;45.10;;;;;;5037702;28;20043;-57
2023/12/01 11:54:35;;;;;;;31.63;7.00;;;20.30;46.10;;;;;;5035528;28;20553;-57
2023/12/01 11:57:05;;;;;;;17.05;4.07;;;20.60;43.70;;;;;;5034278;28;20144;-57
2023/12/01 11:59:31;;;;;;;24.90;5.53;;;20.70;42.80;;;;;;5032674;28;20033;-58
2023/12/01 12:01:57;;;;;;;29.23;5.70;;;20.90;42.20;;;;;;5036315;28;20034;-57
2023/12/01 12:04:25;;;;;;;16.05;2.45;;;21.10;42.10;;;;;;5032982;28;20099;-57
2023/12/01 12:06:52;;;;;;;13.13;3.40;;;21.30;39.60;;;;;;5038047;28;20071;-57
2023/12/01 12:09:19;;;;;;;17.30;3.92;;;21.50;40.30;;;;;;5052635;28;20032;-57
2023/12/01 12:11:53;;;;;;;18.85;4.82;;;21.40;40.00;;;;;;5035943;28;20429;-57
2023/12/01 12:14:23;;;;;;;22.38;3.80;;;21.50;39.90;;;;;;5036122;28;20182;-57
2023/12/01 12:16:49;;;;;;;16.17;2.70;;;21.50;38.80;;;;;;5036278;28;20037;-57
2023/12/01 12:19:16;;;;;;;8.50;2.13;;;21.50;38.40;;;;;;5033209;28;20140;-57
2023/12/01 12:21:42;;;;;;;14.35;2.80;;;21.50;38.10;;;;;;5035400;28;20483;-58
2023/12/01 12:24:08;;;;;;;22.85;3.15;;;21.50;38.50;;;;;;5033352;28;20080;-57
2023/12/01 12:26:35;;;;;;;14.00;2.88;;;21.40;37.70;;;;;;5035295;28;20061;-57
2023/12/01 12:29:04;;;;;;;12.70;3.22;;;21.50;38.40;;;;;;5034689;28;20055;-57
2023/12/01 12:31:37;;;;;;;63.22;5.72;;;21.50;37.80;;;;;;5035127;28;20391;-57
2023/12/01 12:34:08;;;;;;;24.98;3.75;;;21.40;38.20;;;;;;5032794;28;20033;-57
2023/12/01 12:36:38;;;;;;;32.08;4.25;;;21.40;38.40;;;;;;5034657;28;20018;-57
2023/12/01 12:39:06;;;;;;;27.52;3.40;;;21.40;39.00;;;;;;5034190;28;20065;-57
2023/12/01 12:41:35;;;;;;;18.73;4.00;;;21.30;38.40;;;;;;5034118;28;20079;-57
2023/12/01 12:44:03;;;;;;;17.80;3.30;;;21.30;39.40;;;;;;5035387;28;20014;-57
2023/12/01 12:46:30;;;;;;;8.80;2.35;;;21.30;38.50;;;;;;5035337;28;20022;-57